首页
METAR-TAF:

METAR-TAF

机场 :

達拉曼, 土耳其

纬度: 36-42N, 经度: 028-47E, 海拔: 7米

当前天气观测

该预报发布于22分钟前的05:50 UTC
风速5节,风向南转西南,在西转西南之间变化
温度 26°C
湿度 74%
气压 1004 hPa
能见度10公里或以上
1500米以下无云,无积雨云

METAR: LTBS 180550Z 21005KT 170V240 CAVOK 26/21 Q1004 NOSIG

时间: 09:12 (06:12 UTC)

预报

该预报发布于1小时和32分钟前的04:40 UTC
预报有效从18日的 06点(UTC)到 19日的 06点(UTC)
风速2节,风向多变
能见度10公里或以上
1500米以下无云,无积雨云
成为
从 18日的 06点(UTC)到 18日的 08点(UTC)
风速12节,风向西南
少量云层高于3000英尺
成为
从 18日的 16点(UTC)到 18日的 18点(UTC)
风速2节,风向多变
能见度10公里或以上
1500米以下无云,无积雨云

TAF: LTBS 180440Z 1806/1906 VRB02KT CAVOK BECMG 1806/1808 22012KT FEW030 BECMG 1816/1818 VRB02KT CAVOK

超过4000个机场的气象观测和天气预报(METAR&TAF报告)。

可查询的气象台以黄色和红色小点在地图上表示。

将鼠标移到小点上方,可查看气象台名称。

然后点击查看天气观测和预报。

如需切换地图:点击带黑十字的绿色按钮放大地图;点击带横线的绿色按钮缩小地图;或者点击绿色箭头查看邻近地区的地图。


METAR-TAF: